createdAt,value
2023-02-13T00:00:54.656Z,27.8
2023-02-13T00:02:10.941Z,26.1
2023-02-13T00:03:27.235Z,24.9
2023-02-13T00:04:42.557Z,27
2023-02-13T00:05:58.848Z,28.4
2023-02-13T00:07:15.136Z,24.5
2023-02-13T00:08:31.443Z,25.5
2023-02-13T00:09:47.735Z,24.5
2023-02-13T00:11:04.024Z,26.6
2023-02-13T00:12:20.326Z,27.5
2023-02-13T00:13:36.627Z,25.8
2023-02-13T00:14:52.904Z,25.9
2023-02-13T00:16:09.202Z,26.9
2023-02-13T00:17:25.486Z,27.6
2023-02-13T00:18:41.789Z,23.9
2023-02-13T00:19:58.080Z,28
2023-02-13T00:21:13.394Z,29.4
2023-02-13T00:22:29.678Z,25.5
2023-02-13T00:23:45.988Z,25.7
2023-02-13T00:25:02.272Z,26.9
2023-02-13T00:26:18.566Z,27.3
2023-02-13T00:27:34.868Z,26.6
2023-02-13T00:28:51.160Z,26.3
2023-02-13T00:30:07.455Z,27.7
2023-02-13T00:31:23.760Z,27.4
2023-02-13T00:32:40.043Z,27.1
2023-02-13T00:33:56.350Z,27.3
2023-02-13T00:35:12.630Z,25.8
2023-02-13T00:36:28.927Z,25.1
2023-02-13T00:37:44.237Z,28.4
2023-02-13T00:39:00.534Z,25.8
2023-02-13T00:40:16.821Z,28.4
2023-02-13T00:41:33.119Z,30.2
2023-02-13T00:42:49.413Z,27.2
2023-02-13T00:44:05.724Z,27.6
2023-02-13T00:45:21.992Z,27.6
2023-02-13T00:46:38.000Z,24.7
2023-02-13T00:47:54.583Z,28.3
2023-02-13T00:49:10.875Z,27.5
2023-02-13T00:50:27.171Z,27.8
2023-02-13T00:51:43.475Z,27.5
2023-02-13T00:52:59.759Z,26.7
2023-02-13T00:54:15.080Z,28.4
2023-02-13T00:55:31.375Z,27.2
2023-02-13T00:56:47.665Z,30.4
2023-02-13T00:58:03.969Z,28.7
2023-02-13T00:59:20.243Z,27.3
2023-02-13T01:00:36.539Z,27.3
2023-02-13T01:01:52.854Z,29.1
2023-02-13T01:03:09.147Z,30.1
2023-02-13T01:04:25.433Z,29.2
2023-02-13T01:05:41.714Z,32
2023-02-13T01:06:58.023Z,28.7
2023-02-13T01:08:14.323Z,32.1
2023-02-13T01:09:30.607Z,33.6
2023-02-13T01:10:45.908Z,30.5
2023-02-13T01:12:02.218Z,32.6
2023-02-13T01:13:18.507Z,31.5
2023-02-13T01:14:34.817Z,31
2023-02-13T01:15:51.098Z,32.1
2023-02-13T01:17:07.395Z,31
2023-02-13T01:18:23.686Z,34.2
2023-02-13T01:19:39.980Z,34.9
2023-02-13T01:20:56.282Z,33.2
2023-02-13T01:22:12.559Z,34.2
2023-02-13T01:23:28.852Z,33.3
2023-02-13T01:24:45.153Z,31.7
2023-02-13T01:26:01.447Z,32.2
2023-02-13T01:27:16.763Z,34.1
2023-02-13T01:28:33.046Z,34
2023-02-13T01:29:49.340Z,33.5
2023-02-13T01:31:05.642Z,35.1
2023-02-13T01:32:21.930Z,36.2
2023-02-13T01:33:38.235Z,34.5
2023-02-13T01:34:53.538Z,31.8
2023-02-13T01:36:09.832Z,31.8
2023-02-13T01:37:26.142Z,34.8
2023-02-13T01:38:42.418Z,35.6
2023-02-13T01:39:58.724Z,34.4
2023-02-13T01:41:15.025Z,34.9
2023-02-13T01:42:31.304Z,39.2
2023-02-13T01:43:47.606Z,35.3
2023-02-13T01:45:03.899Z,34.2
2023-02-13T01:46:20.202Z,35.1
2023-02-13T01:47:36.493Z,35.5
2023-02-13T01:48:52.775Z,37.2
2023-02-13T01:50:09.076Z,34.7
2023-02-13T01:51:24.385Z,35.2
2023-02-13T01:52:40.684Z,32.8
2023-02-13T01:53:56.977Z,36.2
2023-02-13T01:55:13.282Z,35.7
2023-02-13T01:56:29.569Z,36.4
2023-02-13T01:57:45.859Z,37
2023-02-13T01:59:02.156Z,35.4
2023-02-13T02:00:18.435Z,35.9
2023-02-13T02:01:34.732Z,34.8
2023-02-13T02:02:51.039Z,34.7
2023-02-13T02:04:07.334Z,38.8
2023-02-13T02:05:23.630Z,36.7
2023-02-13T02:06:39.910Z,36.2
2023-02-13T02:07:55.220Z,36
2023-02-13T02:09:11.531Z,37.9
2023-02-13T02:10:27.818Z,36.6
2023-02-13T02:11:44.107Z,33.1
2023-02-13T02:13:00.396Z,36.2
2023-02-13T02:14:16.707Z,39.7
2023-02-13T02:15:33.002Z,37.3
2023-02-13T02:16:49.282Z,33.4
2023-02-13T02:18:05.588Z,34.1
2023-02-13T02:19:21.867Z,34.7
2023-02-13T02:20:38.170Z,33
2023-02-13T02:21:54.458Z,34.1
2023-02-13T02:23:10.759Z,37.7
2023-02-13T02:24:26.084Z,35.3
2023-02-13T02:25:42.362Z,36.1
2023-02-13T02:26:58.668Z,34.2
2023-02-13T02:28:14.953Z,36.4
2023-02-13T02:29:31.243Z,32.3
2023-02-13T02:30:47.542Z,37.4
2023-02-13T02:32:03.841Z,37.3
2023-02-13T02:33:20.141Z,40.2
2023-02-13T02:34:36.422Z,37.5
2023-02-13T02:35:52.725Z,35.3
2023-02-13T02:37:09.002Z,36.1
2023-02-13T02:38:25.317Z,35.3
2023-02-13T02:39:41.604Z,40.2
2023-02-13T02:40:56.910Z,40
2023-02-13T02:42:13.210Z,39.5
2023-02-13T02:43:29.490Z,37
2023-02-13T02:44:45.794Z,36.3
2023-02-13T02:46:02.075Z,36.9
2023-02-13T02:47:18.385Z,37.1
2023-02-13T02:48:34.687Z,37.2
2023-02-13T02:49:50.961Z,38.3
2023-02-13T02:51:07.255Z,38.3
2023-02-13T02:52:23.555Z,31.5
2023-02-13T02:53:39.862Z,34.1
2023-02-13T02:54:56.144Z,37
2023-02-13T02:56:12.444Z,32.6
2023-02-13T02:57:27.741Z,32.6
2023-02-13T02:58:44.038Z,35.2
2023-02-13T03:00:00.339Z,36.2
2023-02-13T03:01:16.639Z,31.4
2023-02-13T03:02:32.921Z,33.2
2023-02-13T03:03:49.220Z,32.7
2023-02-13T03:05:05.515Z,38.3
2023-02-13T03:06:21.831Z,31.1
2023-02-13T03:07:38.113Z,31.2
2023-02-13T03:08:54.410Z,32.6
2023-02-13T03:10:10.700Z,32.4
2023-02-13T03:11:26.999Z,35.8
2023-02-13T03:12:43.283Z,33.5
2023-02-13T03:13:58.592Z,34.5
2023-02-13T03:15:14.884Z,34
2023-02-13T03:16:31.200Z,32.6
2023-02-13T03:17:47.000Z,33.2
2023-02-13T03:19:03.771Z,30.7
2023-02-13T03:20:20.072Z,30.3
2023-02-13T03:21:36.354Z,32.3
2023-02-13T03:22:52.659Z,32.1
2023-02-13T03:24:08.946Z,30.9
2023-02-13T03:25:25.245Z,31.9
2023-02-13T03:26:41.538Z,32.7
2023-02-13T03:27:57.831Z,33.5
2023-02-13T03:29:14.113Z,32.4
2023-02-13T03:30:29.439Z,28.7
2023-02-13T03:31:45.720Z,31.2
2023-02-13T03:33:02.028Z,33.5
2023-02-13T03:34:18.310Z,30.3
2023-02-13T03:35:34.617Z,26.4
2023-02-13T03:36:50.904Z,29.7
2023-02-13T03:38:07.187Z,30.2
2023-02-13T03:39:23.481Z,30.3
2023-02-13T03:40:39.780Z,30.5
2023-02-13T03:41:56.089Z,29
2023-02-13T03:43:12.377Z,31.6
2023-02-13T03:44:28.673Z,27.4
2023-02-13T03:45:44.000Z,28.1
2023-02-13T03:47:00.275Z,30.5
2023-02-13T03:48:16.572Z,26.8
2023-02-13T03:49:32.864Z,28.5
2023-02-13T03:50:49.144Z,28.5
2023-02-13T03:52:05.456Z,26.5
2023-02-13T03:53:21.745Z,27
2023-02-13T03:54:38.031Z,30.2
2023-02-13T03:55:54.336Z,28.8
2023-02-13T03:57:10.643Z,25.4
2023-02-13T03:58:26.924Z,28.5
2023-02-13T03:59:43.228Z,26.8
2023-02-13T04:00:59.504Z,26.3
2023-02-13T04:02:15.793Z,27.4
2023-02-13T04:03:31.114Z,31.8
2023-02-13T04:04:47.397Z,23.6
2023-02-13T04:06:03.689Z,27.1
2023-02-13T04:07:20.000Z,25.8
2023-02-13T04:08:36.292Z,23.6
2023-02-13T04:09:52.598Z,26.9
2023-02-13T04:11:08.887Z,25.2
2023-02-13T04:12:25.164Z,24.7
2023-02-13T04:13:41.461Z,24.5
2023-02-13T04:14:57.773Z,23.2
2023-02-13T04:16:14.044Z,21.3
2023-02-13T04:17:30.346Z,20.7
2023-02-13T04:18:46.649Z,20.5
2023-02-13T04:20:01.944Z,19.8
2023-02-13T04:21:18.257Z,23.7
2023-02-13T04:22:34.544Z,21.1
2023-02-13T04:23:50.840Z,20.3
2023-02-13T04:25:07.126Z,23.6
2023-02-13T04:26:23.425Z,24.1
2023-02-13T04:27:39.711Z,22.9
2023-02-13T04:28:56.020Z,22.5
2023-02-13T04:30:12.311Z,22.4
2023-02-13T04:31:28.600Z,19.7
2023-02-13T04:32:44.891Z,21.7
2023-02-13T04:34:01.205Z,22.6
2023-02-13T04:35:17.482Z,23.6
2023-02-13T04:36:32.784Z,19.4
2023-02-13T04:37:49.078Z,21.6
2023-02-13T04:39:05.387Z,20.7
2023-02-13T04:40:21.678Z,19.9
2023-02-13T04:41:37.973Z,19.3
2023-02-13T04:42:54.281Z,18.6
2023-02-13T04:44:10.566Z,20.3
2023-02-13T04:45:26.847Z,17.9
2023-02-13T04:46:43.155Z,18.6
2023-02-13T04:47:59.448Z,19.3
2023-02-13T04:49:15.731Z,20
2023-02-13T04:50:32.036Z,18.1
2023-02-13T04:51:48.338Z,17.8
2023-02-13T04:53:03.640Z,17
2023-02-13T04:54:19.000Z,17.5
2023-02-13T04:55:36.220Z,17.9
2023-02-13T04:56:52.513Z,18.9
2023-02-13T04:58:08.808Z,16.6
2023-02-13T04:59:25.105Z,18.2
2023-02-13T05:00:41.395Z,16.1
2023-02-13T05:01:57.705Z,15.9
2023-02-13T05:03:13.997Z,14.3
2023-02-13T05:04:30.281Z,17.1
2023-02-13T05:05:46.583Z,15.1
2023-02-13T05:07:02.884Z,17.6
2023-02-13T05:08:19.162Z,19.3
2023-02-13T05:09:34.472Z,18.8
2023-02-13T05:10:50.789Z,18.8
2023-02-13T05:12:07.058Z,18.7
2023-02-13T05:13:23.375Z,18.2
2023-02-13T05:14:39.663Z,19.1
2023-02-13T05:15:55.940Z,16.2
2023-02-13T05:17:12.236Z,17.5
2023-02-13T05:18:28.542Z,15.6
2023-02-13T05:19:44.824Z,15.9
2023-02-13T05:21:01.133Z,17.8
2023-02-13T05:22:17.430Z,16.4
2023-02-13T05:23:33.705Z,17.7
2023-02-13T05:24:50.006Z,16.9
2023-02-13T05:26:05.309Z,19.6
2023-02-13T05:27:21.609Z,16.2
2023-02-13T05:28:37.903Z,15.4
2023-02-13T05:29:54.191Z,16.2
2023-02-13T05:31:10.486Z,15.9
2023-02-13T05:32:26.794Z,15.7
2023-02-13T05:33:43.090Z,16.8
2023-02-13T05:34:59.374Z,14.9
2023-02-13T05:36:15.666Z,16.3
2023-02-13T05:37:31.961Z,13
2023-02-13T05:38:48.282Z,14.3
2023-02-13T05:40:04.559Z,14
2023-02-13T05:41:20.863Z,13.1
2023-02-13T05:42:36.157Z,13.8
2023-02-13T05:43:52.446Z,17.9
2023-02-13T05:45:08.746Z,14.9
2023-02-13T05:46:25.047Z,13.6
2023-02-13T05:47:41.329Z,14.6
2023-02-13T05:48:57.620Z,13
2023-02-13T05:50:12.946Z,15.8
2023-02-13T05:51:29.249Z,15.6
2023-02-13T05:52:45.528Z,13.9
2023-02-13T05:54:01.837Z,13.3
2023-02-13T05:55:18.130Z,14.7
2023-02-13T05:56:34.431Z,15
2023-02-13T05:57:50.721Z,14.2
2023-02-13T05:59:06.960Z,13.4
2023-02-13T06:00:23.256Z,14.5
2023-02-13T06:01:39.559Z,15.7
2023-02-13T06:02:55.852Z,13.2
2023-02-13T06:04:12.113Z,15.9
2023-02-13T06:05:28.334Z,14.3
2023-02-13T06:06:43.588Z,13.7
2023-02-13T06:07:59.839Z,14.5
2023-02-13T06:09:16.095Z,14.8
2023-02-13T06:10:32.309Z,13.6
2023-02-13T06:11:48.545Z,13.1
2023-02-13T06:13:04.787Z,15.6
2023-02-13T06:14:21.045Z,13.9
2023-02-13T06:15:37.299Z,13.9
2023-02-13T06:16:53.524Z,13.9
2023-02-13T06:18:09.763Z,15.7
2023-02-13T06:19:25.994Z,14.9
2023-02-13T06:20:42.234Z,13.4
2023-02-13T06:21:58.499Z,14.2
2023-02-13T06:23:13.725Z,14.2
2023-02-13T06:24:29.965Z,13.2
2023-02-13T06:25:46.207Z,14.3
2023-02-13T06:27:02.448Z,13.8
2023-02-13T06:28:18.699Z,15.5
2023-02-13T06:29:34.944Z,14.6
2023-02-13T06:30:51.192Z,14.7
2023-02-13T06:32:07.426Z,14
2023-02-13T06:33:23.651Z,16
2023-02-13T06:34:39.890Z,14.3
2023-02-13T06:35:56.127Z,14.1
2023-02-13T06:37:12.388Z,14.9
2023-02-13T06:38:28.607Z,15.7
2023-02-13T06:39:43.874Z,14.3
2023-02-13T06:41:00.114Z,15.4
2023-02-13T06:42:16.345Z,14.2
2023-02-13T06:43:32.596Z,17.1
2023-02-13T06:44:48.853Z,14.9
2023-02-13T06:46:05.082Z,15
2023-02-13T06:47:21.317Z,15.5
2023-02-13T06:48:37.552Z,15.3
2023-02-13T06:49:53.800Z,15.9
2023-02-13T06:51:10.044Z,15.4
2023-02-13T06:52:26.282Z,16.2
2023-02-13T06:53:42.513Z,13.1
2023-02-13T06:54:58.764Z,14
2023-02-13T06:56:14.006Z,15.4
2023-02-13T06:57:30.245Z,15.6
2023-02-13T06:58:46.491Z,14.6
2023-02-13T07:00:02.753Z,14.5
2023-02-13T07:01:18.987Z,14.3
2023-02-13T07:02:35.236Z,15.3
2023-02-13T07:03:51.450Z,15.1
2023-02-13T07:05:07.687Z,16.4
2023-02-13T07:06:23.927Z,15.1
2023-02-13T07:07:40.167Z,14
2023-02-13T07:08:56.437Z,15.8
2023-02-13T07:10:12.667Z,13.6
2023-02-13T07:11:28.894Z,14
2023-02-13T07:12:44.148Z,13.7
2023-02-13T07:14:00.387Z,15
2023-02-13T07:15:16.642Z,15.3
2023-02-13T07:16:32.872Z,12.1
2023-02-13T07:17:49.140Z,13
2023-02-13T07:19:05.350Z,12.6
2023-02-13T07:20:21.586Z,13.8
2023-02-13T07:21:37.829Z,13.9
2023-02-13T07:22:54.101Z,13.9
2023-02-13T07:24:10.323Z,14.3
2023-02-13T07:25:26.567Z,14.3
2023-02-13T07:26:42.797Z,13.6
2023-02-13T07:27:59.044Z,12.4
2023-02-13T07:29:14.314Z,13.4
2023-02-13T07:30:30.529Z,12.8
2023-02-13T07:31:46.789Z,13
2023-02-13T07:33:03.006Z,12.8
2023-02-13T07:34:19.252Z,14.5
2023-02-13T07:35:35.491Z,13.8
2023-02-13T07:36:51.725Z,13.1
2023-02-13T07:38:07.964Z,13.7
2023-02-13T07:39:24.228Z,13.7
2023-02-13T07:40:40.475Z,13.5
2023-02-13T07:41:56.700Z,14
2023-02-13T07:43:12.932Z,13.4
2023-02-13T07:44:29.166Z,13
2023-02-13T07:45:44.449Z,11.5
2023-02-13T07:47:00.685Z,11.5
2023-02-13T07:48:16.934Z,13.1
2023-02-13T07:49:33.167Z,13.2
2023-02-13T07:50:49.390Z,11.4
2023-02-13T07:52:05.640Z,11.4
2023-02-13T07:53:21.877Z,11
2023-02-13T07:54:38.113Z,14.3
2023-02-13T07:55:54.362Z,13.1
2023-02-13T07:57:10.594Z,12.1
2023-02-13T07:58:26.849Z,13.6
2023-02-13T07:59:43.076Z,11.5
2023-02-13T08:00:59.329Z,11.9
2023-02-13T08:02:14.566Z,12
2023-02-13T08:03:30.806Z,11.4
2023-02-13T08:04:47.055Z,11.9
2023-02-13T08:06:03.296Z,13
2023-02-13T08:07:19.533Z,11.2
2023-02-13T08:08:35.767Z,11.6
2023-02-13T08:09:52.021Z,12.1
2023-02-13T08:11:08.262Z,12
2023-02-13T08:12:24.499Z,11
2023-02-13T08:13:40.735Z,9.6
2023-02-13T08:14:56.981Z,11.3
2023-02-13T08:16:13.224Z,12.2
2023-02-13T08:17:29.445Z,10.6
2023-02-13T08:18:44.705Z,11
2023-02-13T08:20:00.947Z,10.2
2023-02-13T08:21:17.212Z,11.5
2023-02-13T08:22:33.429Z,11.8
2023-02-13T08:23:49.673Z,11.2
2023-02-13T08:25:05.911Z,10.4
2023-02-13T08:26:22.160Z,12.8
2023-02-13T08:27:38.382Z,11.2
2023-02-13T08:28:54.635Z,12.3
2023-02-13T08:30:10.873Z,12.1
2023-02-13T08:31:27.127Z,12.4
2023-02-13T08:32:43.372Z,12
2023-02-13T08:33:59.000Z,13.1
2023-02-13T08:35:14.863Z,11.8
2023-02-13T08:36:31.099Z,11.8
2023-02-13T08:37:47.341Z,11.9
2023-02-13T08:39:03.580Z,11.9
2023-02-13T08:40:19.799Z,11.2
2023-02-13T08:41:36.055Z,12.8
2023-02-13T08:42:52.297Z,13.1
2023-02-13T08:44:08.539Z,11.9
2023-02-13T08:45:24.787Z,12.4
2023-02-13T08:46:41.023Z,11.7
2023-02-13T08:47:57.244Z,12.6
2023-02-13T08:49:13.510Z,11.1
2023-02-13T08:50:29.739Z,11.7
2023-02-13T08:51:44.980Z,10.8
2023-02-13T08:53:01.235Z,12
2023-02-13T08:54:17.491Z,12.3
2023-02-13T08:55:33.697Z,11.3
2023-02-13T08:56:49.962Z,12.1
2023-02-13T08:58:06.178Z,10.6
2023-02-13T08:59:22.426Z,12.1
2023-02-13T09:00:38.684Z,12.8
2023-02-13T09:01:54.912Z,12.2
2023-02-13T09:03:11.139Z,11.4
2023-02-13T09:04:27.401Z,13
2023-02-13T09:05:43.626Z,13.4
2023-02-13T09:06:59.886Z,11.2
2023-02-13T09:08:15.152Z,12.5
2023-02-13T09:09:31.357Z,10.1
2023-02-13T09:10:47.602Z,12.1
2023-02-13T09:12:03.840Z,11.7
2023-02-13T09:13:20.091Z,11.7
2023-02-13T09:14:36.344Z,11.7
2023-02-13T09:15:52.573Z,12.6
2023-02-13T09:17:08.810Z,12.2
2023-02-13T09:18:25.051Z,10.8
2023-02-13T09:19:41.288Z,10.4
2023-02-13T09:20:57.528Z,12.3
2023-02-13T09:22:13.793Z,11.7
2023-02-13T09:23:30.010Z,11.1
2023-02-13T09:24:45.265Z,10.7
2023-02-13T09:26:01.529Z,11.6
2023-02-13T09:27:17.738Z,10.7
2023-02-13T09:28:33.979Z,12.3
2023-02-13T09:29:50.253Z,12.5
2023-02-13T09:31:06.485Z,12.7
2023-02-13T09:32:22.701Z,11.9
2023-02-13T09:33:38.949Z,12.2
2023-02-13T09:34:55.197Z,11.7
2023-02-13T09:36:11.437Z,12.1
2023-02-13T09:37:27.674Z,13.1
2023-02-13T09:38:43.907Z,12
2023-02-13T09:40:00.140Z,13.3
2023-02-13T09:41:15.396Z,12.4
2023-02-13T09:42:31.663Z,13.6
2023-02-13T09:43:47.888Z,11.5
2023-02-13T09:45:04.135Z,12.5
2023-02-13T09:46:20.363Z,13.3
2023-02-13T09:47:36.615Z,12.7
2023-02-13T09:48:52.852Z,13.4
2023-02-13T09:50:09.095Z,13.4
2023-02-13T09:51:25.344Z,13.1
2023-02-13T09:52:41.563Z,12
2023-02-13T09:53:57.822Z,12.4
2023-02-13T09:55:14.043Z,12.8
2023-02-13T09:56:30.281Z,13.8
2023-02-13T09:57:45.532Z,13.9
2023-02-13T09:59:01.802Z,12.8
2023-02-13T10:00:18.034Z,12.6
2023-02-13T10:01:34.251Z,15
2023-02-13T10:02:50.491Z,15.5
2023-02-13T10:04:06.736Z,15.4
2023-02-13T10:05:22.016Z,14.7
2023-02-13T10:06:38.246Z,15.1
2023-02-13T10:07:54.499Z,15.2
2023-02-13T10:09:10.720Z,13.6
2023-02-13T10:10:26.975Z,14.1
2023-02-13T10:11:43.225Z,13.3
2023-02-13T10:12:59.438Z,15.7
2023-02-13T10:14:15.674Z,14.7
2023-02-13T10:15:31.953Z,14
2023-02-13T10:16:48.164Z,14.3
2023-02-13T10:18:04.426Z,15.6
2023-02-13T10:19:20.659Z,15.2
2023-02-13T10:20:36.886Z,13.9
2023-02-13T10:21:52.131Z,14.6
2023-02-13T10:23:08.372Z,13.8
2023-02-13T10:24:24.614Z,15.1
2023-02-13T10:25:40.869Z,17
2023-02-13T10:26:57.116Z,14.5
2023-02-13T10:28:13.364Z,14.7
2023-02-13T10:29:29.576Z,13.3
2023-02-13T10:30:45.849Z,13.3
2023-02-13T10:32:02.054Z,12.4
2023-02-13T10:33:18.293Z,14.6
2023-02-13T10:34:34.555Z,16.1
2023-02-13T10:35:50.779Z,14.1
2023-02-13T10:37:07.040Z,15.9
2023-02-13T10:38:22.273Z,16.5
2023-02-13T10:39:38.541Z,15.3
2023-02-13T10:40:54.772Z,15.9
2023-02-13T10:42:11.014Z,14.9
2023-02-13T10:43:27.240Z,17.1
2023-02-13T10:44:43.477Z,14.8
2023-02-13T10:45:59.729Z,16.9
2023-02-13T10:47:15.963Z,17.1
2023-02-13T10:48:32.218Z,17
2023-02-13T10:49:48.467Z,15.7
2023-02-13T10:51:04.686Z,17.1
2023-02-13T10:52:20.925Z,16.5
2023-02-13T10:53:37.185Z,15.7
2023-02-13T10:54:52.422Z,17.1
2023-02-13T10:56:08.673Z,17
2023-02-13T10:57:24.922Z,14.8
2023-02-13T10:58:41.170Z,16.2
2023-02-13T10:59:57.380Z,17.6
2023-02-13T11:01:13.617Z,16.1
2023-02-13T11:02:29.872Z,16.2
2023-02-13T11:03:46.128Z,15.2
2023-02-13T11:05:02.332Z,16.1
2023-02-13T11:06:18.599Z,16.3
2023-02-13T11:07:34.816Z,17.2
2023-02-13T11:08:51.051Z,16.7
2023-02-13T11:10:07.295Z,16.3
2023-02-13T11:11:22.576Z,14.4
2023-02-13T11:12:38.795Z,14.8
2023-02-13T11:13:55.066Z,14.7
2023-02-13T11:15:11.279Z,15.5
2023-02-13T11:16:27.508Z,16.7
2023-02-13T11:17:43.770Z,14
2023-02-13T11:18:59.987Z,14.1
2023-02-13T11:20:16.247Z,14.3
2023-02-13T11:21:32.484Z,14.9
2023-02-13T11:22:48.724Z,14.1
2023-02-13T11:24:04.975Z,12.9
2023-02-13T11:25:21.188Z,12.6
2023-02-13T11:26:37.454Z,13.4
2023-02-13T11:27:52.695Z,14.6
2023-02-13T11:29:08.939Z,14
2023-02-13T11:30:25.165Z,12.8
2023-02-13T11:31:41.432Z,13
2023-02-13T11:32:57.662Z,13.6
2023-02-13T11:34:13.894Z,13.3
2023-02-13T11:35:30.146Z,13.2
2023-02-13T11:36:46.404Z,12.6
2023-02-13T11:38:02.618Z,14.8
2023-02-13T11:39:18.887Z,13.2
2023-02-13T11:40:35.123Z,13.3
2023-02-13T11:41:51.333Z,13.5
2023-02-13T11:43:07.574Z,13.5
2023-02-13T11:44:22.828Z,12.7
2023-02-13T11:45:39.088Z,12.3
2023-02-13T11:46:55.318Z,11.3
2023-02-13T11:48:11.558Z,11.3
2023-02-13T11:49:27.814Z,12.6
2023-02-13T11:50:44.037Z,13.5
2023-02-13T11:52:00.280Z,12.4
2023-02-13T11:53:16.522Z,13.5
2023-02-13T11:54:32.745Z,12.6
2023-02-13T11:55:49.024Z,11.9
2023-02-13T11:57:05.238Z,11.7
2023-02-13T11:58:21.485Z,12.2
2023-02-13T11:59:37.719Z,13.3
2023-02-13T12:00:52.977Z,12.5
2023-02-13T12:02:09.220Z,13.1
2023-02-13T12:03:25.471Z,14.1
2023-02-13T12:04:41.683Z,14.1
2023-02-13T12:05:57.943Z,12.8
2023-02-13T12:07:14.192Z,13.7
2023-02-13T12:08:30.444Z,12.9
2023-02-13T12:09:46.650Z,13.9
2023-02-13T12:11:02.890Z,13.1
2023-02-13T12:12:19.125Z,14.5
2023-02-13T12:13:35.375Z,14.1
2023-02-13T12:14:51.640Z,13.8
2023-02-13T12:16:07.861Z,13.8
2023-02-13T12:17:23.109Z,12.4
2023-02-13T12:18:39.368Z,13.8
2023-02-13T12:19:55.620Z,14.5
2023-02-13T12:21:11.842Z,13.6
2023-02-13T12:22:28.065Z,12.4
2023-02-13T12:23:44.335Z,11.4
2023-02-13T12:25:00.553Z,11.3
2023-02-13T12:26:16.807Z,10.9
2023-02-13T12:27:33.036Z,11.2
2023-02-13T12:28:49.282Z,12.4
2023-02-13T12:30:05.510Z,10.7
2023-02-13T12:31:21.762Z,10.9
2023-02-13T12:32:38.007Z,10.5
2023-02-13T12:33:53.241Z,11
2023-02-13T12:35:09.506Z,11.1
2023-02-13T12:36:25.722Z,11.7
2023-02-13T12:37:41.999Z,11.3
2023-02-13T12:38:58.211Z,10.8
2023-02-13T12:40:14.455Z,11.3
2023-02-13T12:41:30.705Z,11
2023-02-13T12:42:46.925Z,10.2
2023-02-13T12:44:03.163Z,12.4
2023-02-13T12:45:19.427Z,13.3
2023-02-13T12:46:35.646Z,11.9
2023-02-13T12:47:51.909Z,11.2
2023-02-13T12:49:08.150Z,12
2023-02-13T12:50:23.406Z,12.1
2023-02-13T12:51:39.649Z,10.9
2023-02-13T12:52:55.864Z,10.8
2023-02-13T12:54:12.143Z,9.6
2023-02-13T12:55:28.366Z,9.8
2023-02-13T12:56:44.608Z,10
2023-02-13T12:58:00.833Z,9.9
2023-02-13T12:59:17.066Z,9.8
2023-02-13T13:00:33.315Z,8.1
2023-02-13T13:01:49.554Z,9.4
2023-02-13T13:03:05.811Z,9.5
2023-02-13T13:04:22.029Z,10.1
2023-02-13T13:05:38.279Z,11.4
2023-02-13T13:06:53.522Z,9.8
2023-02-13T13:08:09.787Z,9.7
2023-02-13T13:09:26.041Z,10.1
2023-02-13T13:10:42.282Z,9.9
2023-02-13T13:11:58.489Z,8.8
2023-02-13T13:13:14.724Z,9.6
2023-02-13T13:14:30.997Z,9.7
2023-02-13T13:15:47.229Z,9.1
2023-02-13T13:17:03.471Z,8.9
2023-02-13T13:18:19.711Z,8.4
2023-02-13T13:19:35.928Z,8.9
2023-02-13T13:20:52.175Z,9.3
2023-02-13T13:22:08.400Z,8.6
2023-02-13T13:23:23.685Z,8
2023-02-13T13:24:39.904Z,8.5
2023-02-13T13:25:56.153Z,9.2
2023-02-13T13:27:12.405Z,9.1
2023-02-13T13:28:28.656Z,9.2
2023-02-13T13:29:44.859Z,8.5
2023-02-13T13:31:01.103Z,8.2
2023-02-13T13:32:17.348Z,8.4
2023-02-13T13:33:33.582Z,9.8
2023-02-13T13:34:49.831Z,8.9
2023-02-13T13:36:06.089Z,8.7
2023-02-13T13:37:22.307Z,8.4
2023-02-13T13:38:38.570Z,9.5
2023-02-13T13:39:53.816Z,8.8
2023-02-13T13:41:10.047Z,9.4
2023-02-13T13:42:26.295Z,8.3
2023-02-13T13:43:42.550Z,9.2
2023-02-13T13:44:58.791Z,8.2
2023-02-13T13:46:15.025Z,7.8
2023-02-13T13:47:31.244Z,8.4
2023-02-13T13:48:47.515Z,9.2
2023-02-13T13:50:03.729Z,9.4
2023-02-13T13:51:20.001Z,9
2023-02-13T13:52:36.221Z,9.1
2023-02-13T13:53:52.443Z,8.9
2023-02-13T13:55:08.687Z,9.6
2023-02-13T13:56:23.938Z,9.1
2023-02-13T13:57:40.211Z,9.8
2023-02-13T13:58:56.427Z,9.9
2023-02-13T14:00:12.685Z,9.3
2023-02-13T14:01:28.930Z,8.4
2023-02-13T14:02:45.143Z,9.4
2023-02-13T14:04:01.385Z,8.6
2023-02-13T14:05:17.626Z,8.8
2023-02-13T14:06:33.894Z,8.1
2023-02-13T14:07:50.101Z,9.2
2023-02-13T14:09:06.350Z,9.7
2023-02-13T14:10:22.581Z,10
2023-02-13T14:11:38.829Z,10.1
2023-02-13T14:12:54.095Z,10.7
2023-02-13T14:14:10.319Z,9.3
2023-02-13T14:15:26.564Z,9.5
2023-02-13T14:16:42.809Z,10.1
2023-02-13T14:17:59.069Z,9.8
2023-02-13T14:19:15.308Z,11.8
2023-02-13T14:20:30.572Z,10.4
2023-02-13T14:21:46.782Z,12.1
2023-02-13T14:23:03.052Z,9.9
2023-02-13T14:24:19.265Z,10.9
2023-02-13T14:25:35.502Z,9.7
2023-02-13T14:26:51.771Z,11.8
2023-02-13T14:28:08.025Z,10.4
2023-02-13T14:29:24.230Z,10.5
2023-02-13T14:30:40.499Z,10.6
2023-02-13T14:31:56.708Z,10.5
2023-02-13T14:33:12.976Z,12
2023-02-13T14:34:29.186Z,12
2023-02-13T14:35:45.450Z,11.2
2023-02-13T14:37:00.687Z,11.9
2023-02-13T14:38:16.947Z,13.3
2023-02-13T14:39:33.170Z,11.1
2023-02-13T14:40:49.417Z,12.1
2023-02-13T14:42:05.647Z,12.7
2023-02-13T14:43:21.911Z,11.7
2023-02-13T14:44:38.154Z,11.2
2023-02-13T14:45:54.377Z,12
2023-02-13T14:47:10.632Z,11.9
2023-02-13T14:48:26.882Z,10.2
2023-02-13T14:49:43.084Z,9.8
2023-02-13T14:50:59.325Z,10.6
2023-02-13T14:52:15.591Z,11.2
2023-02-13T14:53:30.824Z,12.1
2023-02-13T14:54:47.074Z,11
2023-02-13T14:56:03.314Z,9.5
2023-02-13T14:57:19.571Z,10.4
2023-02-13T14:58:35.785Z,11.3
2023-02-13T14:59:52.023Z,10.3
2023-02-13T15:01:08.298Z,9.8
2023-02-13T15:02:24.507Z,11.8
2023-02-13T15:03:40.741Z,10.6
2023-02-13T15:04:57.018Z,10.6
2023-02-13T15:06:13.235Z,10.3
2023-02-13T15:07:29.481Z,10.2
2023-02-13T15:08:45.711Z,10.2
2023-02-13T15:10:00.996Z,10.7
2023-02-13T15:11:17.232Z,10.9
2023-02-13T15:12:33.446Z,9.9
2023-02-13T15:13:49.707Z,10.6
2023-02-13T15:15:05.963Z,10.2
2023-02-13T15:16:22.178Z,10.3
2023-02-13T15:17:38.427Z,9.7
2023-02-13T15:20:10.890Z,9.5
2023-02-13T15:21:27.127Z,10.5
2023-02-13T15:22:43.367Z,10.7
2023-02-13T15:23:59.640Z,12.7
2023-02-13T15:25:15.877Z,13.7
2023-02-13T15:26:31.106Z,12.5
2023-02-13T15:27:47.342Z,11.7
2023-02-13T15:29:03.608Z,12.4
2023-02-13T15:30:19.861Z,12.2
2023-02-13T15:31:36.069Z,10.9
2023-02-13T15:32:52.302Z,9.4
2023-02-13T15:34:08.541Z,12.1
2023-02-13T15:35:24.780Z,11
2023-02-13T15:36:41.040Z,12
2023-02-13T15:37:57.288Z,11
2023-02-13T15:39:13.509Z,11.9
2023-02-13T15:40:29.741Z,12.9
2023-02-13T15:41:45.986Z,12.2
2023-02-13T15:43:01.267Z,11.7
2023-02-13T15:44:17.524Z,11.3
2023-02-13T15:45:33.753Z,11.2
2023-02-13T15:46:49.959Z,12.1
2023-02-13T15:48:06.203Z,11.3
2023-02-13T15:49:22.442Z,11.7
2023-02-13T15:50:38.678Z,10.9
2023-02-13T15:51:54.918Z,11.7
2023-02-13T15:53:11.193Z,10.7
2023-02-13T15:54:27.408Z,10.2
2023-02-13T15:55:43.682Z,11.3
2023-02-13T15:56:59.916Z,10.2
2023-02-13T15:58:16.130Z,11
2023-02-13T15:59:31.411Z,10.1
2023-02-13T16:00:47.650Z,9.8
2023-02-13T16:02:03.872Z,13.3
2023-02-13T16:03:20.143Z,12
2023-02-13T16:04:36.343Z,13.2
2023-02-13T16:05:52.620Z,13.4
2023-02-13T16:07:08.835Z,16.3
2023-02-13T16:08:25.067Z,14.6
2023-02-13T16:09:41.308Z,13.5
2023-02-13T16:10:57.589Z,12.6
2023-02-13T16:12:13.787Z,11.5
2023-02-13T16:13:30.063Z,12.9
2023-02-13T16:14:46.316Z,11.7
2023-02-13T16:16:01.516Z,11.5
2023-02-13T16:17:17.807Z,10.6
2023-02-13T16:18:34.058Z,10.6
2023-02-13T16:19:50.247Z,10.5
2023-02-13T16:21:06.520Z,11.4
2023-02-13T16:22:22.762Z,10
2023-02-13T16:23:39.007Z,11.2
2023-02-13T16:24:55.204Z,11.4
2023-02-13T16:26:11.440Z,11.9
2023-02-13T16:27:27.730Z,12.9
2023-02-13T16:28:43.930Z,10
2023-02-13T16:30:00.217Z,11.6
2023-02-13T16:31:16.464Z,10.4
2023-02-13T16:32:32.693Z,10.6
2023-02-13T16:33:47.957Z,10.4
2023-02-13T16:35:04.154Z,10.5
2023-02-13T16:36:20.441Z,12.5
2023-02-13T16:37:36.673Z,12
2023-02-13T16:38:52.925Z,12.8
2023-02-13T16:40:09.103Z,12
2023-02-13T16:41:25.403Z,11.2
2023-02-13T16:42:41.579Z,11.7
2023-02-13T16:43:57.881Z,11.6
2023-02-13T16:45:14.123Z,11.5
2023-02-13T16:46:30.411Z,11.1
2023-02-13T16:47:46.705Z,12
2023-02-13T16:49:02.948Z,10.5
2023-02-13T16:50:18.151Z,11.8
2023-02-13T16:51:34.396Z,12.1
2023-02-13T16:52:50.684Z,11.8
2023-02-13T16:54:06.981Z,11.1
2023-02-13T16:55:23.329Z,12.8
2023-02-13T16:56:39.633Z,10.2
2023-02-13T16:57:55.912Z,10.7
2023-02-13T16:59:12.153Z,12.2
2023-02-13T17:00:28.499Z,11.9
2023-02-13T17:01:44.745Z,10.8
2023-02-13T17:03:01.039Z,11.3
2023-02-13T17:04:17.387Z,11.2